Details From LPPT - Lisboa
To LPFR - Faro
Flight Number -
Tags decoded
Created
Modified
Stats Distance 124 nm / 230 km
Max Altitude 0 ft / 0 m
Waypoints 6
Social Downloads 1
Likes 0
Share VATSIM

Download

Looking for another format? Having issues loading an existing format? Contact us
Advertisement - Login to hide

Notes

Requested: LPPT ESP TROIA ODEMI VFA LPFR

Route

LPPT ESP TROIA ODEMI VFA LPFR

ID Type Via Altitude (ft/m) Position (lat/lon) Dist (leg/tot) Name
O LPPT APT - 0 / 0 38.77856 / -9.13515 - / 0 nm Lisboa
ESP VOR - 0 / 0 38.42427 / -9.18578 21 / 21 nm ESPICHEL VORTAC
TROIA FIX - 0 / 0 38.07333 / -8.87917 25 / 46 nm
ODEMI FIX - 0 / 0 37.49750 / -8.38389 41 / 88 nm
VFA VOR - 0 / 0 37.01352 / -7.97501 35 / 123 nm FARO VOR-DME
O LPFR APT - 0 / 0 37.01534 / -7.97233 0 / 123 nm Faro

Altitude Profile

Advertisement - Login to hide

LPPT

Details ICAO LPPT (LIS)
Name Lisbon Humberto Delgado
Region Portugal
Timezone Europe/Lisbon (UTC+0.0)
Stats Elevation 374 ft / 114 m (AMSL)
Location 38.778500° -9.135280°
Runways 2
Magnetic Variation 2.205° W

METAR

LPPT 231400Z 08009KT 050V110 CAVOK 22/05 Q1020

Decode

TAF

TAF LPPT 231130Z 2312/2418 08012KT CAVOK TEMPO 2318/2406 02005KT

Decode

Departure Runways

ID Width Length Bearing (true/mag) Surface Threshold Overrun Markings Lighting
03 148 ft / 45 m 12,167 ft / 3,708 m 22.70° / 24.91° ASPHALT 302 ft / 92 m 0 ft / 0 m PREC-APP CENTERLINE EDGE THRESHOLD ALSF-II TDZ REIL-OMNI
17 148 ft / 45 m 7,602 ft / 2,317 m 168.10° / 170.31° CONCRETE 0 ft / 0 m 0 ft / 0 m PREC-APP CENTERLINE EDGE THRESHOLD ALSF-II TDZ REIL-OMNI
21 148 ft / 45 m 12,167 ft / 3,708 m 202.71° / 204.92° ASPHALT 1,634 ft / 498 m 0 ft / 0 m PREC-APP CENTERLINE EDGE THRESHOLD ALSF-II TDZ REIL-OMNI
35 148 ft / 45 m 7,602 ft / 2,317 m 348.11° / 350.31° CONCRETE 197 ft / 60 m 0 ft / 0 m PREC-APP CENTERLINE EDGE THRESHOLD ALSF-II TDZ REIL-OMNI

LPFR

Details ICAO LPFR (FAO)
Name Faro
Region Portugal
Timezone Europe/Lisbon (UTC+0.0)
Stats Elevation 22 ft / 7 m (AMSL)
Location 37.015300° -7.972320°
Runways 1
Magnetic Variation 1.784° W

METAR

LPFR 231400Z 09016KT 9999 FEW030 21/07 Q1018

Decode

TAF

TAF LPFR 231130Z 2312/2412 09015KT CAVOK PROB40 TEMPO 2312/2316 09020G30KT BECMG 2406/2409 9999 SCT035 PROB30 TEMPO 2409/2412 BKN030

Decode

Destination Runways

ID Width Length Bearing (true/mag) Surface Threshold Overrun Markings Lighting
10 148 ft / 45 m 8,179 ft / 2,493 m 100.08° / 101.86° ASPHALT 148 ft / 45 m 0 ft / 0 m PREC-APP EDGE THRESHOLD REIL-OMNI
28 148 ft / 45 m 8,179 ft / 2,493 m 280.09° / 281.88° ASPHALT 144 ft / 44 m 0 ft / 0 m PREC-APP EDGE THRESHOLD REIL-OMNI

Approach Navaids

Runway Type Ident Frequency Range Bearing (true/mag) Slope Elevation
28 GS IIF 109.50 MHz 10 nm / 19 km 280.17° / 281.96 ° 3.00° 24 ft / 7 m (AMSL)
28 DME IIF 109.50 MHz 18 nm / 33 km - - 24 ft / 7 m (AMSL)
28 LOC-ILS IIF 109.50 MHz 18 nm / 33 km 280.08° / 281.86 ° - 22 ft / 7 m (AMSL)

Popular Alternatives